ENBN/BNN METAR and TAF weather

Enter ICAO airport designator
Station Type Date Time Source
ENBN METAR 2018/07/16 23:50 UTC NOAA

ENBN 162350Z AUTO 18007KT 150V210 9999NDV NCD 15/14 Q1016


Station Type Date Time Source
ENBN Decoded METAR 2018/07/16 23:50 UTC NOAA

Bronnoysund / Bronnoy, Norway (ENBN) 65-28N 012-13E 9M
Jul 16, 2018 - 07:50 PM EDT / 2018.07.16 2350 UTC
Wind: from the S (180 degrees) at 8 MPH (7 KT) (direction variable):0
Temperature: 59 F (15 C)
Dew Point: 57 F (14 C)
Relative Humidity: 93%
Pressure (altimeter): 30.00 in. Hg (1016 hPa)
ob: ENBN 162350Z AUTO 18007KT 150V210 9999NDV NCD 15/14 Q1016
cycle: 0

Station Type Date Time Source
ENBN TAF 2011/03/27 18:12 UTC NOAA

TAF TAF ENBN 261700Z 2618/2718 CNL


Example: see airport list